sensor_id;sensor_type;location;lat;lon;timestamp;pressure;altitude;pressure_sealevel;temperature;humidity
71361;BME280;59166;48.908;1.870;2023-05-12T00:02:00;100457.78;;;10.88;100.00
71361;BME280;59166;48.908;1.870;2023-05-12T00:07:02;100464.50;;;10.80;100.00
71361;BME280;59166;48.908;1.870;2023-05-12T00:12:03;100451.97;;;10.74;100.00
71361;BME280;59166;48.908;1.870;2023-05-12T00:17:06;100455.44;;;10.70;100.00
71361;BME280;59166;48.908;1.870;2023-05-12T00:22:06;100453.81;;;10.69;100.00
71361;BME280;59166;48.908;1.870;2023-05-12T00:27:08;100454.03;;;10.62;100.00
71361;BME280;59166;48.908;1.870;2023-05-12T00:32:10;100448.00;;;10.55;100.00
71361;BME280;59166;48.908;1.870;2023-05-12T00:37:11;100446.38;;;10.54;100.00
71361;BME280;59166;48.908;1.870;2023-05-12T00:42:12;100448.78;;;10.51;100.00
71361;BME280;59166;48.908;1.870;2023-05-12T00:47:14;100449.56;;;10.46;100.00
71361;BME280;59166;48.908;1.870;2023-05-12T00:52:15;100441.69;;;10.45;100.00
71361;BME280;59166;48.908;1.870;2023-05-12T00:57:17;100451.44;;;10.46;100.00
71361;BME280;59166;48.908;1.870;2023-05-12T01:02:19;100438.75;;;10.46;100.00
71361;BME280;59166;48.908;1.870;2023-05-12T01:07:21;100440.38;;;10.47;100.00
71361;BME280;59166;48.908;1.870;2023-05-12T01:12:22;100439.56;;;10.47;100.00
71361;BME280;59166;48.908;1.870;2023-05-12T01:17:27;100439.06;;;10.50;100.00
71361;BME280;59166;48.908;1.870;2023-05-12T01:22:32;100437.94;;;10.46;100.00
71361;BME280;59166;48.908;1.870;2023-05-12T01:27:36;100445.75;;;10.47;100.00
71361;BME280;59166;48.908;1.870;2023-05-12T01:32:37;100432.56;;;10.51;100.00
71361;BME280;59166;48.908;1.870;2023-05-12T01:37:38;100443.94;;;10.53;100.00
71361;BME280;59166;48.908;1.870;2023-05-12T01:42:41;100440.66;;;10.51;99.79
71361;BME280;59166;48.908;1.870;2023-05-12T01:47:42;100443.66;;;10.49;99.86
71361;BME280;59166;48.908;1.870;2023-05-12T01:52:43;100429.25;;;10.44;100.00
71361;BME280;59166;48.908;1.870;2023-05-12T01:57:45;100429.75;;;10.35;100.00
71361;BME280;59166;48.908;1.870;2023-05-12T02:02:46;100431.56;;;10.30;100.00
71361;BME280;59166;48.908;1.870;2023-05-12T02:07:47;100435.38;;;10.34;100.00
71361;BME280;59166;48.908;1.870;2023-05-12T02:12:49;100430.69;;;10.24;100.00
71361;BME280;59166;48.908;1.870;2023-05-12T02:17:50;100428.47;;;10.16;100.00
71361;BME280;59166;48.908;1.870;2023-05-12T02:22:51;100429.47;;;10.10;100.00
71361;BME280;59166;48.908;1.870;2023-05-12T02:27:53;100435.84;;;9.99;100.00
71361;BME280;59166;48.908;1.870;2023-05-12T02:32:54;100436.91;;;9.98;100.00
71361;BME280;59166;48.908;1.870;2023-05-12T02:37:54;100428.00;;;9.98;100.00
71361;BME280;59166;48.908;1.870;2023-05-12T02:42:57;100422.56;;;9.93;100.00
71361;BME280;59166;48.908;1.870;2023-05-12T02:47:58;100422.16;;;9.84;100.00
71361;BME280;59166;48.908;1.870;2023-05-12T02:52:58;100430.25;;;9.84;100.00
71361;BME280;59166;48.908;1.870;2023-05-12T02:58:01;100429.94;;;9.80;100.00
71361;BME280;59166;48.908;1.870;2023-05-12T03:03:01;100423.44;;;9.76;100.00
71361;BME280;59166;48.908;1.870;2023-05-12T03:08:03;100426.06;;;9.71;100.00
71361;BME280;59166;48.908;1.870;2023-05-12T03:13:05;100422.66;;;9.59;100.00
71361;BME280;59166;48.908;1.870;2023-05-12T03:18:06;100424.00;;;9.57;100.00
71361;BME280;59166;48.908;1.870;2023-05-12T03:23:07;100423.44;;;9.55;100.00
71361;BME280;59166;48.908;1.870;2023-05-12T03:28:09;100430.72;;;9.54;100.00
71361;BME280;59166;48.908;1.870;2023-05-12T03:33:10;100430.13;;;9.52;100.00
71361;BME280;59166;48.908;1.870;2023-05-12T03:38:11;100426.84;;;9.45;100.00
71361;BME280;59166;48.908;1.870;2023-05-12T03:43:13;100427.44;;;9.30;100.00
71361;BME280;59166;48.908;1.870;2023-05-12T03:48:14;100439.28;;;9.29;100.00
71361;BME280;59166;48.908;1.870;2023-05-12T03:53:15;100436.53;;;9.24;99.76
71361;BME280;59166;48.908;1.870;2023-05-12T03:58:17;100445.09;;;9.21;100.00
71361;BME280;59166;48.908;1.870;2023-05-12T04:03:18;100435.38;;;9.20;100.00
71361;BME280;59166;48.908;1.870;2023-05-12T04:08:19;100443.38;;;9.15;100.00
71361;BME280;59166;48.908;1.870;2023-05-12T04:13:21;100445.00;;;9.16;100.00
71361;BME280;59166;48.908;1.870;2023-05-12T04:18:22;100438.47;;;9.12;100.00
71361;BME280;59166;48.908;1.870;2023-05-12T04:23:23;100429.34;;;9.13;100.00
71361;BME280;59166;48.908;1.870;2023-05-12T04:28:25;100438.97;;;9.09;100.00
71361;BME280;59166;48.908;1.870;2023-05-12T04:33:26;100441.94;;;9.08;100.00
71361;BME280;59166;48.908;1.870;2023-05-12T04:38:27;100444.38;;;9.09;100.00
71361;BME280;59166;48.908;1.870;2023-05-12T04:43:29;100446.50;;;9.07;100.00
71361;BME280;59166;48.908;1.870;2023-05-12T04:48:30;100453.44;;;9.03;100.00
71361;BME280;59166;48.908;1.870;2023-05-12T04:53:31;100457.69;;;8.99;100.00
71361;BME280;59166;48.908;1.870;2023-05-12T04:58:33;100457.28;;;8.91;100.00
71361;BME280;59166;48.908;1.870;2023-05-12T05:03:34;100473.69;;;8.89;100.00
71361;BME280;59166;48.908;1.870;2023-05-12T05:08:35;100473.69;;;8.89;100.00
71361;BME280;59166;48.908;1.870;2023-05-12T05:13:37;100488.31;;;8.93;100.00
71361;BME280;59166;48.908;1.870;2023-05-12T05:18:38;100489.97;;;8.94;100.00
71361;BME280;59166;48.908;1.870;2023-05-12T05:23:39;100493.88;;;9.03;100.00
71361;BME280;59166;48.908;1.870;2023-05-12T05:28:41;100490.19;;;9.09;100.00
71361;BME280;59166;48.908;1.870;2023-05-12T05:33:42;100488.47;;;9.20;100.00
71361;BME280;59166;48.908;1.870;2023-05-12T05:38:43;100479.66;;;9.24;100.00
71361;BME280;59166;48.908;1.870;2023-05-12T05:43:45;100489.75;;;9.34;100.00
71361;BME280;59166;48.908;1.870;2023-05-12T05:48:46;100486.88;;;9.41;100.00
71361;BME280;59166;48.908;1.870;2023-05-12T05:53:46;100484.81;;;9.48;100.00
71361;BME280;59166;48.908;1.870;2023-05-12T05:58:49;100492.47;;;9.56;100.00
71361;BME280;59166;48.908;1.870;2023-05-12T06:03:49;100495.25;;;9.61;100.00
71361;BME280;59166;48.908;1.870;2023-05-12T06:08:50;100491.56;;;9.67;100.00
71361;BME280;59166;48.908;1.870;2023-05-12T06:13:52;100496.59;;;9.80;100.00
71361;BME280;59166;48.908;1.870;2023-05-12T06:18:53;100492.13;;;9.91;100.00
71361;BME280;59166;48.908;1.870;2023-05-12T06:23:54;100494.91;;;9.96;97.86
71361;BME280;59166;48.908;1.870;2023-05-12T06:28:56;100500.47;;;10.11;97.54
71361;BME280;59166;48.908;1.870;2023-05-12T06:33:57;100499.84;;;10.25;96.73
71361;BME280;59166;48.908;1.870;2023-05-12T06:38:58;100508.16;;;10.46;94.69
71361;BME280;59166;48.908;1.870;2023-05-12T06:44:00;100508.81;;;10.58;93.41
71361;BME280;59166;48.908;1.870;2023-05-12T06:49:01;100515.19;;;10.73;93.08
71361;BME280;59166;48.908;1.870;2023-05-12T06:54:02;100499.94;;;10.89;90.57
71361;BME280;59166;48.908;1.870;2023-05-12T06:59:04;100500.63;;;11.06;88.96
71361;BME280;59166;48.908;1.870;2023-05-12T07:04:05;100496.41;;;11.20;90.64
71361;BME280;59166;48.908;1.870;2023-05-12T07:09:06;100501.41;;;11.38;89.87
71361;BME280;59166;48.908;1.870;2023-05-12T07:19:29;100498.22;;;11.99;86.74
71361;BME280;59166;48.908;1.870;2023-05-12T07:24:30;100505.03;;;12.16;85.97
71361;BME280;59166;48.908;1.870;2023-05-12T07:29:32;100503.16;;;12.17;83.82
71361;BME280;59166;48.908;1.870;2023-05-12T07:34:33;100511.84;;;12.19;88.21
71361;BME280;59166;48.908;1.870;2023-05-12T07:39:34;100500.16;;;12.13;85.51
71361;BME280;59166;48.908;1.870;2023-05-12T07:44:36;100496.94;;;12.21;86.87
71361;BME280;59166;48.908;1.870;2023-05-12T07:49:37;100500.47;;;12.27;86.39
71361;BME280;59166;48.908;1.870;2023-05-12T07:54:38;100505.69;;;12.38;88.02
71361;BME280;59166;48.908;1.870;2023-05-12T07:59:40;100497.59;;;12.54;87.68
71361;BME280;59166;48.908;1.870;2023-05-12T08:04:41;100508.44;;;12.59;87.68
71361;BME280;59166;48.908;1.870;2023-05-12T08:09:43;100502.50;;;12.77;87.28
71361;BME280;59166;48.908;1.870;2023-05-12T08:14:46;100495.47;;;12.86;87.13
71361;BME280;59166;48.908;1.870;2023-05-12T08:19:47;100497.06;;;13.07;89.65
71361;BME280;59166;48.908;1.870;2023-05-12T08:24:48;100499.50;;;13.29;89.96
71361;BME280;59166;48.908;1.870;2023-05-12T08:29:50;100504.66;;;13.40;86.99
71361;BME280;59166;48.908;1.870;2023-05-12T08:34:51;100506.25;;;13.57;86.22
71361;BME280;59166;48.908;1.870;2023-05-12T08:39:52;100505.41;;;13.76;88.13
71361;BME280;59166;48.908;1.870;2023-05-12T08:44:56;100508.09;;;13.81;87.20
71361;BME280;59166;48.908;1.870;2023-05-12T08:50:00;100515.44;;;13.86;86.48
71361;BME280;59166;48.908;1.870;2023-05-12T08:55:03;100510.91;;;14.25;86.84
71361;BME280;59166;48.908;1.870;2023-05-12T09:00:07;100514.69;;;14.78;86.51
71361;BME280;59166;48.908;1.870;2023-05-12T09:05:08;100518.78;;;14.76;85.21
71361;BME280;59166;48.908;1.870;2023-05-12T09:10:14;100514.50;;;14.65;86.72
71361;BME280;59166;48.908;1.870;2023-05-12T09:15:21;100518.63;;;14.57;86.07
71361;BME280;59166;48.908;1.870;2023-05-12T09:20:24;100511.28;;;14.58;88.50
71361;BME280;59166;48.908;1.870;2023-05-12T09:25:25;100514.28;;;14.56;90.05
71361;BME280;59166;48.908;1.870;2023-05-12T09:30:31;100510.34;;;14.33;91.58
71361;BME280;59166;48.908;1.870;2023-05-12T09:35:37;100506.38;;;14.06;90.56
71361;BME280;59166;48.908;1.870;2023-05-12T09:40:38;100512.44;;;13.87;91.63
71361;BME280;59166;48.908;1.870;2023-05-12T09:45:40;100511.13;;;13.70;94.06
71361;BME280;59166;48.908;1.870;2023-05-12T09:50:42;100508.94;;;13.62;92.44
71361;BME280;59166;48.908;1.870;2023-05-12T09:55:43;100509.50;;;13.59;94.64
71361;BME280;59166;48.908;1.870;2023-05-12T10:00:46;100503.50;;;13.62;96.72
71361;BME280;59166;48.908;1.870;2023-05-12T10:05:48;100514.94;;;13.59;97.74
71361;BME280;59166;48.908;1.870;2023-05-12T10:10:50;100518.47;;;13.64;97.49
71361;BME280;59166;48.908;1.870;2023-05-12T10:15:55;100508.69;;;13.63;95.48
71361;BME280;59166;48.908;1.870;2023-05-12T10:20:56;100513.81;;;13.75;98.05
71361;BME280;59166;48.908;1.870;2023-05-12T10:25:58;100513.16;;;14.18;93.18
71361;BME280;59166;48.908;1.870;2023-05-12T10:31:02;100509.72;;;14.47;90.34
71361;BME280;59166;48.908;1.870;2023-05-12T10:36:15;100510.16;;;14.64;91.10
71361;BME280;59166;48.908;1.870;2023-05-12T10:41:27;100505.41;;;14.46;87.22
71361;BME280;59166;48.908;1.870;2023-05-12T10:46:29;100500.59;;;14.27;90.48
71361;BME280;59166;48.908;1.870;2023-05-12T10:51:31;100509.31;;;14.19;91.04
71361;BME280;59166;48.908;1.870;2023-05-12T10:56:41;100500.75;;;14.46;92.93
71361;BME280;59166;48.908;1.870;2023-05-12T11:01:56;100486.78;;;15.02;89.58
71361;BME280;59166;48.908;1.870;2023-05-12T11:06:58;100493.88;;;15.31;85.48
71361;BME280;59166;48.908;1.870;2023-05-12T11:11:58;100485.56;;;15.18;83.72
71361;BME280;59166;48.908;1.870;2023-05-12T11:17:01;100487.63;;;14.97;88.17
71361;BME280;59166;48.908;1.870;2023-05-12T11:22:04;100490.22;;;14.78;88.09
71361;BME280;59166;48.908;1.870;2023-05-12T11:27:10;100493.91;;;14.54;88.81
71361;BME280;59166;48.908;1.870;2023-05-12T11:32:14;100488.91;;;14.27;86.37
71361;BME280;59166;48.908;1.870;2023-05-12T11:37:15;100482.06;;;14.34;89.35
71361;BME280;59166;48.908;1.870;2023-05-12T11:42:16;100491.66;;;14.66;92.02
71361;BME280;59166;48.908;1.870;2023-05-12T11:47:18;100485.47;;;14.55;90.55
71361;BME280;59166;48.908;1.870;2023-05-12T11:52:21;100484.19;;;14.42;90.71
71361;BME280;59166;48.908;1.870;2023-05-12T11:57:26;100474.78;;;14.25;93.49
71361;BME280;59166;48.908;1.870;2023-05-12T12:02:28;100478.91;;;14.17;92.41
71361;BME280;59166;48.908;1.870;2023-05-12T12:07:30;100480.34;;;14.05;88.88
71361;BME280;59166;48.908;1.870;2023-05-12T12:12:31;100479.03;;;13.87;91.38
71361;BME280;59166;48.908;1.870;2023-05-12T12:17:33;100480.16;;;13.81;92.45
71361;BME280;59166;48.908;1.870;2023-05-12T12:22:34;100481.50;;;13.68;92.35
71361;BME280;59166;48.908;1.870;2023-05-12T12:27:35;100481.78;;;13.77;94.37
71361;BME280;59166;48.908;1.870;2023-05-12T12:32:37;100481.00;;;14.25;92.29
71361;BME280;59166;48.908;1.870;2023-05-12T12:37:38;100484.53;;;14.75;88.32
71361;BME280;59166;48.908;1.870;2023-05-12T12:42:39;100478.44;;;14.88;87.84
71361;BME280;59166;48.908;1.870;2023-05-12T12:47:41;100480.72;;;14.76;87.18
71361;BME280;59166;48.908;1.870;2023-05-12T12:52:42;100478.41;;;14.54;85.64
71361;BME280;59166;48.908;1.870;2023-05-12T12:57:43;100482.63;;;14.31;88.26
71361;BME280;59166;48.908;1.870;2023-05-12T13:02:45;100484.44;;;13.97;90.28
71361;BME280;59166;48.908;1.870;2023-05-12T13:07:46;100479.34;;;13.80;91.41
71361;BME280;59166;48.908;1.870;2023-05-12T13:12:47;100482.34;;;13.74;90.86
71361;BME280;59166;48.908;1.870;2023-05-12T13:17:49;100480.47;;;13.54;89.84
71361;BME280;59166;48.908;1.870;2023-05-12T13:22:50;100492.69;;;13.52;90.85
71361;BME280;59166;48.908;1.870;2023-05-12T13:27:51;100493.78;;;13.46;90.91
71361;BME280;59166;48.908;1.870;2023-05-12T13:32:53;100492.44;;;13.43;91.25
71361;BME280;59166;48.908;1.870;2023-05-12T13:37:54;100489.44;;;13.45;93.65
71361;BME280;59166;48.908;1.870;2023-05-12T13:42:55;100487.53;;;13.50;94.13
71361;BME280;59166;48.908;1.870;2023-05-12T13:47:57;100480.22;;;13.51;94.28
71361;BME280;59166;48.908;1.870;2023-05-12T13:52:58;100487.81;;;13.44;92.92
71361;BME280;59166;48.908;1.870;2023-05-12T13:57:58;100489.19;;;13.36;92.18
71361;BME280;59166;48.908;1.870;2023-05-12T14:03:01;100478.59;;;13.45;92.13
71361;BME280;59166;48.908;1.870;2023-05-12T14:08:02;100485.13;;;13.44;91.97
71361;BME280;59166;48.908;1.870;2023-05-12T14:13:02;100473.16;;;13.50;91.53
71361;BME280;59166;48.908;1.870;2023-05-12T14:18:05;100469.59;;;13.59;92.08
71361;BME280;59166;48.908;1.870;2023-05-12T14:23:05;100464.72;;;13.56;93.09
71361;BME280;59166;48.908;1.870;2023-05-12T14:28:06;100465.53;;;13.52;91.00
71361;BME280;59166;48.908;1.870;2023-05-12T14:33:08;100464.47;;;13.58;91.51
71361;BME280;59166;48.908;1.870;2023-05-12T14:38:09;100455.72;;;13.76;91.17
71361;BME280;59166;48.908;1.870;2023-05-12T14:43:13;100454.28;;;13.94;90.85
71361;BME280;59166;48.908;1.870;2023-05-12T14:48:15;100459.75;;;13.88;89.39
71361;BME280;59166;48.908;1.870;2023-05-12T14:53:16;100453.72;;;14.02;90.51
71361;BME280;59166;48.908;1.870;2023-05-12T14:58:17;100466.16;;;14.13;86.93
71361;BME280;59166;48.908;1.870;2023-05-12T15:03:19;100466.28;;;14.36;86.76
71361;BME280;59166;48.908;1.870;2023-05-12T15:08:20;100463.59;;;14.70;85.37
71361;BME280;59166;48.908;1.870;2023-05-12T15:13:21;100470.25;;;14.54;84.16
71361;BME280;59166;48.908;1.870;2023-05-12T15:18:23;100453.00;;;14.35;84.27
71361;BME280;59166;48.908;1.870;2023-05-12T15:23:24;100454.84;;;14.39;86.81
71361;BME280;59166;48.908;1.870;2023-05-12T15:28:25;100456.75;;;14.39;85.67
71361;BME280;59166;48.908;1.870;2023-05-12T15:33:27;100454.28;;;14.42;84.59
71361;BME280;59166;48.908;1.870;2023-05-12T15:38:28;100464.38;;;14.37;84.17
71361;BME280;59166;48.908;1.870;2023-05-12T15:43:29;100455.47;;;14.26;85.88
71361;BME280;59166;48.908;1.870;2023-05-12T15:48:31;100461.00;;;14.11;84.72
71361;BME280;59166;48.908;1.870;2023-05-12T15:53:32;100458.41;;;13.91;87.44
71361;BME280;59166;48.908;1.870;2023-05-12T15:58:33;100459.47;;;13.85;88.53
71361;BME280;59166;48.908;1.870;2023-05-12T16:03:35;100447.53;;;13.86;87.19
71361;BME280;59166;48.908;1.870;2023-05-12T16:08:36;100450.22;;;13.96;87.33
71361;BME280;59166;48.908;1.870;2023-05-12T16:13:37;100453.75;;;13.91;89.17
71361;BME280;59166;48.908;1.870;2023-05-12T16:18:39;100458.94;;;13.88;87.24
71361;BME280;59166;48.908;1.870;2023-05-12T16:23:43;100456.25;;;13.88;87.79
71361;BME280;59166;48.908;1.870;2023-05-12T16:28:43;100450.00;;;13.82;86.85
71361;BME280;59166;48.908;1.870;2023-05-12T16:33:46;100457.06;;;13.83;87.06
71361;BME280;59166;48.908;1.870;2023-05-12T16:38:47;100458.13;;;13.82;87.41
71361;BME280;59166;48.908;1.870;2023-05-12T16:43:48;100458.19;;;13.72;89.41
71361;BME280;59166;48.908;1.870;2023-05-12T16:48:50;100461.72;;;13.68;90.98
71361;BME280;59166;48.908;1.870;2023-05-12T16:53:51;100459.25;;;13.61;91.75
71361;BME280;59166;48.908;1.870;2023-05-12T16:58:51;100464.72;;;13.51;93.92
71361;BME280;59166;48.908;1.870;2023-05-12T17:03:54;100458.78;;;13.39;94.89
71361;BME280;59166;48.908;1.870;2023-05-12T17:08:55;100450.69;;;13.29;96.32
71361;BME280;59166;48.908;1.870;2023-05-12T17:13:56;100463.44;;;13.23;98.60
71361;BME280;59166;48.908;1.870;2023-05-12T17:18:58;100462.34;;;13.14;99.99
71361;BME280;59166;48.908;1.870;2023-05-12T17:23:59;100465.09;;;13.09;100.00
71361;BME280;59166;48.908;1.870;2023-05-12T17:29:00;100472.94;;;13.06;100.00
71361;BME280;59166;48.908;1.870;2023-05-12T17:34:02;100471.03;;;13.01;100.00
71361;BME280;59166;48.908;1.870;2023-05-12T17:39:03;100470.50;;;12.94;100.00
71361;BME280;59166;48.908;1.870;2023-05-12T17:44:04;100475.94;;;12.84;100.00
71361;BME280;59166;48.908;1.870;2023-05-12T17:49:07;100475.91;;;12.74;100.00
71361;BME280;59166;48.908;1.870;2023-05-12T17:54:07;100472.69;;;12.62;100.00
71361;BME280;59166;48.908;1.870;2023-05-12T17:59:08;100469.94;;;12.52;100.00
71361;BME280;59166;48.908;1.870;2023-05-12T18:04:11;100474.81;;;12.45;100.00
71361;BME280;59166;48.908;1.870;2023-05-12T18:09:11;100480.78;;;12.42;100.00
71361;BME280;59166;48.908;1.870;2023-05-12T18:14:12;100488.63;;;12.38;100.00
71361;BME280;59166;48.908;1.870;2023-05-12T18:19:15;100495.38;;;12.41;100.00
71361;BME280;59166;48.908;1.870;2023-05-12T18:24:15;100495.13;;;12.42;100.00
71361;BME280;59166;48.908;1.870;2023-05-12T18:29:16;100497.56;;;12.44;100.00
71361;BME280;59166;48.908;1.870;2023-05-12T18:34:18;100504.34;;;12.41;100.00
71361;BME280;59166;48.908;1.870;2023-05-12T18:39:19;100504.59;;;12.34;100.00
71361;BME280;59166;48.908;1.870;2023-05-12T18:44:20;100506.69;;;12.22;100.00
71361;BME280;59166;48.908;1.870;2023-05-12T18:49:22;100508.00;;;12.10;100.00
71361;BME280;59166;48.908;1.870;2023-05-12T18:54:38;100512.03;;;12.02;100.00
71361;BME280;59166;48.908;1.870;2023-05-12T18:59:39;100516.88;;;11.95;100.00
71361;BME280;59166;48.908;1.870;2023-05-12T19:04:43;100530.38;;;11.90;100.00
71361;BME280;59166;48.908;1.870;2023-05-12T19:09:44;100533.31;;;11.83;100.00
71361;BME280;59166;48.908;1.870;2023-05-12T19:14:44;100544.16;;;11.83;100.00
71361;BME280;59166;48.908;1.870;2023-05-12T19:19:47;100544.13;;;11.78;100.00
71361;BME280;59166;48.908;1.870;2023-05-12T19:24:48;100554.41;;;11.76;100.00
71361;BME280;59166;48.908;1.870;2023-05-12T19:29:50;100563.28;;;11.72;100.00
71361;BME280;59166;48.908;1.870;2023-05-12T19:34:55;100572.47;;;11.66;100.00
71361;BME280;59166;48.908;1.870;2023-05-12T19:39:56;100584.31;;;11.55;100.00
71361;BME280;59166;48.908;1.870;2023-05-12T19:44:57;100585.31;;;11.44;100.00
71361;BME280;59166;48.908;1.870;2023-05-12T19:49:59;100584.41;;;11.33;100.00
71361;BME280;59166;48.908;1.870;2023-05-12T19:55:03;100587.94;;;11.38;100.00
71361;BME280;59166;48.908;1.870;2023-05-12T20:00:05;100589.00;;;11.32;100.00
71361;BME280;59166;48.908;1.870;2023-05-12T20:05:08;100596.50;;;11.25;100.00
71361;BME280;59166;48.908;1.870;2023-05-12T20:10:10;100604.81;;;11.19;100.00
71361;BME280;59166;48.908;1.870;2023-05-12T20:15:11;100615.84;;;11.12;100.00
71361;BME280;59166;48.908;1.870;2023-05-12T20:20:13;100613.06;;;11.02;100.00
71361;BME280;59166;48.908;1.870;2023-05-12T20:25:14;100625.41;;;10.93;100.00
71361;BME280;59166;48.908;1.870;2023-05-12T20:30:15;100618.81;;;10.84;100.00
71361;BME280;59166;48.908;1.870;2023-05-12T20:35:18;100627.19;;;10.82;100.00
71361;BME280;59166;48.908;1.870;2023-05-12T20:40:18;100637.13;;;10.77;100.00
71361;BME280;59166;48.908;1.870;2023-05-12T20:45:19;100639.72;;;10.72;100.00
71361;BME280;59166;48.908;1.870;2023-05-12T20:50:22;100633.78;;;10.70;100.00
71361;BME280;59166;48.908;1.870;2023-05-12T20:55:23;100643.75;;;10.69;100.00
71361;BME280;59166;48.908;1.870;2023-05-12T21:00:23;100645.31;;;10.65;100.00
71361;BME280;59166;48.908;1.870;2023-05-12T21:05:26;100635.56;;;10.64;100.00
71361;BME280;59166;48.908;1.870;2023-05-12T21:10:26;100637.44;;;10.64;100.00
71361;BME280;59166;48.908;1.870;2023-05-12T21:15:27;100640.00;;;10.70;100.00
71361;BME280;59166;48.908;1.870;2023-05-12T21:20:30;100635.03;;;10.62;100.00
71361;BME280;59166;48.908;1.870;2023-05-12T21:25:31;100629.44;;;10.69;100.00
71361;BME280;59166;48.908;1.870;2023-05-12T21:30:31;100626.72;;;10.69;100.00
71361;BME280;59166;48.908;1.870;2023-05-12T21:35:34;100625.41;;;10.71;100.00
71361;BME280;59166;48.908;1.870;2023-05-12T21:40:35;100631.63;;;10.72;100.00
71361;BME280;59166;48.908;1.870;2023-05-12T21:45:36;100632.50;;;10.77;100.00
71361;BME280;59166;48.908;1.870;2023-05-12T21:50:38;100628.25;;;10.81;100.00
71361;BME280;59166;48.908;1.870;2023-05-12T21:55:39;100634.22;;;10.83;100.00
71361;BME280;59166;48.908;1.870;2023-05-12T22:00:41;100632.63;;;10.88;100.00
71361;BME280;59166;48.908;1.870;2023-05-12T22:05:43;100635.94;;;10.95;100.00
71361;BME280;59166;48.908;1.870;2023-05-12T22:10:44;100631.44;;;11.00;100.00
71361;BME280;59166;48.908;1.870;2023-05-12T22:15:45;100636.88;;;11.05;100.00
71361;BME280;59166;48.908;1.870;2023-05-12T22:20:47;100643.94;;;11.11;100.00
71361;BME280;59166;48.908;1.870;2023-05-12T22:25:48;100638.91;;;11.20;100.00
71361;BME280;59166;48.908;1.870;2023-05-12T22:30:48;100646.28;;;11.24;100.00
71361;BME280;59166;48.908;1.870;2023-05-12T22:35:51;100652.06;;;11.38;100.00
71361;BME280;59166;48.908;1.870;2023-05-12T22:40:51;100665.63;;;11.43;100.00
71361;BME280;59166;48.908;1.870;2023-05-12T22:45:52;100651.03;;;11.44;100.00
71361;BME280;59166;48.908;1.870;2023-05-12T22:50:55;100654.03;;;11.48;100.00
71361;BME280;59166;48.908;1.870;2023-05-12T22:55:55;100649.16;;;11.45;100.00
71361;BME280;59166;48.908;1.870;2023-05-12T23:00:56;100647.00;;;11.47;100.00
71361;BME280;59166;48.908;1.870;2023-05-12T23:05:58;100646.94;;;11.42;100.00
71361;BME280;59166;48.908;1.870;2023-05-12T23:10:59;100654.00;;;11.43;100.00
71361;BME280;59166;48.908;1.870;2023-05-12T23:16:00;100644.00;;;11.43;100.00
71361;BME280;59166;48.908;1.870;2023-05-12T23:21:02;100645.94;;;11.48;100.00
71361;BME280;59166;48.908;1.870;2023-05-12T23:26:03;100645.72;;;11.54;100.00
71361;BME280;59166;48.908;1.870;2023-05-12T23:31:04;100637.91;;;11.58;100.00
71361;BME280;59166;48.908;1.870;2023-05-12T23:36:07;100636.03;;;11.63;100.00
71361;BME280;59166;48.908;1.870;2023-05-12T23:41:08;100639.56;;;11.64;100.00
71361;BME280;59166;48.908;1.870;2023-05-12T23:46:08;100642.00;;;11.65;100.00
71361;BME280;59166;48.908;1.870;2023-05-12T23:51:11;100631.97;;;11.61;100.00
71361;BME280;59166;48.908;1.870;2023-05-12T23:56:11;100629.25;;;11.61;100.00
